sensor_id;sensor_type;location;lat;lon;timestamp;P1;durP1;ratioP1;P2;durP2;ratioP2
19456;SDS011;9867;48.094;11.478;2022-07-01T00:01:47;6.53;;;3.70;;
19456;SDS011;9867;48.094;11.478;2022-07-01T00:04:16;4.77;;;4.00;;
19456;SDS011;9867;48.094;11.478;2022-07-01T00:06:45;6.93;;;4.10;;
19456;SDS011;9867;48.094;11.478;2022-07-01T00:09:13;4.63;;;4.20;;
19456;SDS011;9867;48.094;11.478;2022-07-01T00:11:41;5.20;;;3.60;;
19456;SDS011;9867;48.094;11.478;2022-07-01T00:14:09;7.37;;;4.50;;
19456;SDS011;9867;48.094;11.478;2022-07-01T00:16:36;3.93;;;3.53;;
19456;SDS011;9867;48.094;11.478;2022-07-01T00:19:06;4.43;;;3.70;;
19456;SDS011;9867;48.094;11.478;2022-07-01T00:21:34;4.67;;;3.63;;
19456;SDS011;9867;48.094;11.478;2022-07-01T00:24:04;4.07;;;3.77;;
19456;SDS011;9867;48.094;11.478;2022-07-01T00:26:32;5.90;;;4.03;;
19456;SDS011;9867;48.094;11.478;2022-07-01T00:29:01;5.23;;;3.57;;
19456;SDS011;9867;48.094;11.478;2022-07-01T00:31:29;5.63;;;3.40;;
19456;SDS011;9867;48.094;11.478;2022-07-01T00:33:56;4.60;;;3.13;;
19456;SDS011;9867;48.094;11.478;2022-07-01T00:36:24;4.50;;;3.37;;
19456;SDS011;9867;48.094;11.478;2022-07-01T00:38:56;3.40;;;3.10;;
19456;SDS011;9867;48.094;11.478;2022-07-01T00:41:26;4.10;;;2.90;;
19456;SDS011;9867;48.094;11.478;2022-07-01T00:43:54;6.30;;;3.20;;
19456;SDS011;9867;48.094;11.478;2022-07-01T00:46:24;3.37;;;2.90;;
19456;SDS011;9867;48.094;11.478;2022-07-01T00:48:53;2.70;;;2.20;;
19456;SDS011;9867;48.094;11.478;2022-07-01T00:51:22;3.67;;;2.13;;
19456;SDS011;9867;48.094;11.478;2022-07-01T00:53:51;3.47;;;2.27;;
19456;SDS011;9867;48.094;11.478;2022-07-01T00:56:19;5.20;;;2.33;;
19456;SDS011;9867;48.094;11.478;2022-07-01T00:58:48;3.50;;;2.20;;
19456;SDS011;9867;48.094;11.478;2022-07-01T01:01:17;3.40;;;2.23;;
19456;SDS011;9867;48.094;11.478;2022-07-01T01:03:45;4.20;;;2.40;;
19456;SDS011;9867;48.094;11.478;2022-07-01T01:06:13;2.23;;;1.93;;
19456;SDS011;9867;48.094;11.478;2022-07-01T01:08:42;3.87;;;2.17;;
19456;SDS011;9867;48.094;11.478;2022-07-01T01:11:10;3.53;;;1.70;;
19456;SDS011;9867;48.094;11.478;2022-07-01T01:13:39;5.73;;;1.70;;
19456;SDS011;9867;48.094;11.478;2022-07-01T01:16:09;2.23;;;1.33;;
19456;SDS011;9867;48.094;11.478;2022-07-01T01:18:43;3.57;;;1.50;;
19456;SDS011;9867;48.094;11.478;2022-07-01T01:21:12;2.33;;;1.30;;
19456;SDS011;9867;48.094;11.478;2022-07-01T01:23:40;1.30;;;1.20;;
19456;SDS011;9867;48.094;11.478;2022-07-01T01:26:16;4.03;;;0.87;;
19456;SDS011;9867;48.094;11.478;2022-07-01T01:28:44;1.00;;;1.00;;
19456;SDS011;9867;48.094;11.478;2022-07-01T01:31:12;3.13;;;1.00;;
19456;SDS011;9867;48.094;11.478;2022-07-01T01:33:40;1.50;;;0.80;;
19456;SDS011;9867;48.094;11.478;2022-07-01T01:36:08;0.70;;;0.70;;
19456;SDS011;9867;48.094;11.478;2022-07-01T01:38:38;1.37;;;0.97;;
19456;SDS011;9867;48.094;11.478;2022-07-01T01:41:05;1.20;;;0.73;;
19456;SDS011;9867;48.094;11.478;2022-07-01T01:43:35;1.00;;;1.00;;
19456;SDS011;9867;48.094;11.478;2022-07-01T01:46:03;1.13;;;0.77;;
19456;SDS011;9867;48.094;11.478;2022-07-01T01:48:31;0.90;;;0.90;;
19456;SDS011;9867;48.094;11.478;2022-07-01T01:50:59;0.87;;;0.83;;
19456;SDS011;9867;48.094;11.478;2022-07-01T01:53:27;2.33;;;1.03;;
19456;SDS011;9867;48.094;11.478;2022-07-01T01:55:56;0.70;;;0.70;;
19456;SDS011;9867;48.094;11.478;2022-07-01T01:58:24;0.93;;;0.73;;
19456;SDS011;9867;48.094;11.478;2022-07-01T02:00:53;0.87;;;0.87;;
19456;SDS011;9867;48.094;11.478;2022-07-01T02:03:21;2.17;;;0.70;;
19456;SDS011;9867;48.094;11.478;2022-07-01T02:05:49;0.63;;;0.63;;
19456;SDS011;9867;48.094;11.478;2022-07-01T02:08:17;2.20;;;0.60;;
19456;SDS011;9867;48.094;11.478;2022-07-01T02:10:45;0.87;;;0.80;;
19456;SDS011;9867;48.094;11.478;2022-07-01T02:13:19;0.87;;;0.87;;
19456;SDS011;9867;48.094;11.478;2022-07-01T02:15:47;0.77;;;0.70;;
19456;SDS011;9867;48.094;11.478;2022-07-01T02:18:16;1.80;;;0.77;;
19456;SDS011;9867;48.094;11.478;2022-07-01T02:20:44;0.70;;;0.70;;
19456;SDS011;9867;48.094;11.478;2022-07-01T02:23:13;1.00;;;0.70;;
19456;SDS011;9867;48.094;11.478;2022-07-01T02:25:41;2.57;;;1.07;;
19456;SDS011;9867;48.094;11.478;2022-07-01T02:28:09;0.67;;;0.67;;
19456;SDS011;9867;48.094;11.478;2022-07-01T02:30:38;0.77;;;0.60;;
19456;SDS011;9867;48.094;11.478;2022-07-01T02:33:06;1.33;;;0.80;;
19456;SDS011;9867;48.094;11.478;2022-07-01T02:35:35;0.77;;;0.77;;
19456;SDS011;9867;48.094;11.478;2022-07-01T02:38:05;1.10;;;1.00;;
19456;SDS011;9867;48.094;11.478;2022-07-01T02:40:34;1.80;;;1.00;;
19456;SDS011;9867;48.094;11.478;2022-07-01T02:43:04;2.30;;;1.07;;
19456;SDS011;9867;48.094;11.478;2022-07-01T02:45:31;1.07;;;0.97;;
19456;SDS011;9867;48.094;11.478;2022-07-01T02:48:01;1.10;;;1.00;;
19456;SDS011;9867;48.094;11.478;2022-07-01T02:50:29;0.90;;;0.90;;
19456;SDS011;9867;48.094;11.478;2022-07-01T02:52:57;0.77;;;0.77;;
19456;SDS011;9867;48.094;11.478;2022-07-01T02:55:25;1.87;;;1.00;;
19456;SDS011;9867;48.094;11.478;2022-07-01T02:57:55;1.03;;;0.80;;
19456;SDS011;9867;48.094;11.478;2022-07-01T03:00:24;1.67;;;1.20;;
19456;SDS011;9867;48.094;11.478;2022-07-01T03:02:52;0.90;;;0.90;;
19456;SDS011;9867;48.094;11.478;2022-07-01T03:05:23;1.27;;;0.97;;
19456;SDS011;9867;48.094;11.478;2022-07-01T03:07:51;2.67;;;0.70;;
19456;SDS011;9867;48.094;11.478;2022-07-01T03:10:19;0.80;;;0.80;;
19456;SDS011;9867;48.094;11.478;2022-07-01T03:12:47;0.80;;;0.80;;
19456;SDS011;9867;48.094;11.478;2022-07-01T03:15:15;0.83;;;0.70;;
19456;SDS011;9867;48.094;11.478;2022-07-01T03:17:46;0.73;;;0.73;;
19456;SDS011;9867;48.094;11.478;2022-07-01T03:20:15;2.73;;;0.83;;
19456;SDS011;9867;48.094;11.478;2022-07-01T03:22:45;0.70;;;0.70;;
19456;SDS011;9867;48.094;11.478;2022-07-01T03:25:14;0.90;;;0.90;;
19456;SDS011;9867;48.094;11.478;2022-07-01T03:27:41;2.47;;;1.03;;
19456;SDS011;9867;48.094;11.478;2022-07-01T03:30:14;1.40;;;1.00;;
19456;SDS011;9867;48.094;11.478;2022-07-01T03:32:43;1.63;;;1.10;;
19456;SDS011;9867;48.094;11.478;2022-07-01T03:35:11;0.60;;;0.60;;
19456;SDS011;9867;48.094;11.478;2022-07-01T03:37:58;1.17;;;1.07;;
19456;SDS011;9867;48.094;11.478;2022-07-01T03:40:25;0.80;;;0.80;;
19456;SDS011;9867;48.094;11.478;2022-07-01T03:42:53;1.23;;;0.93;;
19456;SDS011;9867;48.094;11.478;2022-07-01T03:45:21;2.90;;;1.27;;
19456;SDS011;9867;48.094;11.478;2022-07-01T03:47:49;1.53;;;1.00;;
19456;SDS011;9867;48.094;11.478;2022-07-01T03:50:20;1.10;;;1.00;;
19456;SDS011;9867;48.094;11.478;2022-07-01T03:52:48;0.83;;;0.80;;
19456;SDS011;9867;48.094;11.478;2022-07-01T03:55:38;1.13;;;1.00;;
19456;SDS011;9867;48.094;11.478;2022-07-01T03:58:05;0.97;;;0.97;;
19456;SDS011;9867;48.094;11.478;2022-07-01T04:00:33;1.10;;;1.00;;
19456;SDS011;9867;48.094;11.478;2022-07-01T04:03:02;1.20;;;0.87;;
19456;SDS011;9867;48.094;11.478;2022-07-01T04:05:31;1.23;;;1.13;;
19456;SDS011;9867;48.094;11.478;2022-07-01T04:08:01;1.67;;;1.47;;
19456;SDS011;9867;48.094;11.478;2022-07-01T04:10:29;1.43;;;1.00;;
19456;SDS011;9867;48.094;11.478;2022-07-01T04:13:01;2.87;;;1.03;;
19456;SDS011;9867;48.094;11.478;2022-07-01T04:15:50;1.30;;;1.20;;
19456;SDS011;9867;48.094;11.478;2022-07-01T04:18:18;1.20;;;1.10;;
19456;SDS011;9867;48.094;11.478;2022-07-01T04:20:46;2.73;;;0.80;;
19456;SDS011;9867;48.094;11.478;2022-07-01T04:23:34;1.13;;;0.80;;
19456;SDS011;9867;48.094;11.478;2022-07-01T04:26:01;0.87;;;0.87;;
19456;SDS011;9867;48.094;11.478;2022-07-01T04:28:51;0.90;;;0.90;;
19456;SDS011;9867;48.094;11.478;2022-07-01T04:31:21;1.10;;;1.00;;
19456;SDS011;9867;48.094;11.478;2022-07-01T04:33:49;0.80;;;0.80;;
19456;SDS011;9867;48.094;11.478;2022-07-01T04:36:17;2.20;;;1.43;;
19456;SDS011;9867;48.094;11.478;2022-07-01T04:38:45;1.40;;;0.80;;
19456;SDS011;9867;48.094;11.478;2022-07-01T04:41:13;1.80;;;1.70;;
19456;SDS011;9867;48.094;11.478;2022-07-01T04:44:00;3.63;;;1.30;;
19456;SDS011;9867;48.094;11.478;2022-07-01T04:46:28;1.10;;;1.10;;
19456;SDS011;9867;48.094;11.478;2022-07-01T04:48:56;2.80;;;1.20;;
19456;SDS011;9867;48.094;11.478;2022-07-01T04:51:24;2.10;;;1.40;;
19456;SDS011;9867;48.094;11.478;2022-07-01T04:53:52;1.50;;;1.00;;
19456;SDS011;9867;48.094;11.478;2022-07-01T04:56:20;2.83;;;1.13;;
19456;SDS011;9867;48.094;11.478;2022-07-01T04:58:48;1.33;;;1.17;;
19456;SDS011;9867;48.094;11.478;2022-07-01T05:01:18;1.33;;;1.23;;
19456;SDS011;9867;48.094;11.478;2022-07-01T05:03:45;1.63;;;1.00;;
19456;SDS011;9867;48.094;11.478;2022-07-01T05:06:14;1.10;;;1.07;;
19456;SDS011;9867;48.094;11.478;2022-07-01T05:08:42;1.87;;;1.17;;
19456;SDS011;9867;48.094;11.478;2022-07-01T05:11:10;3.77;;;1.37;;
19456;SDS011;9867;48.094;11.478;2022-07-01T05:13:38;3.13;;;1.03;;
19456;SDS011;9867;48.094;11.478;2022-07-01T05:16:06;1.77;;;1.67;;
19456;SDS011;9867;48.094;11.478;2022-07-01T05:18:36;1.30;;;1.20;;
19456;SDS011;9867;48.094;11.478;2022-07-01T05:21:22;1.90;;;1.30;;
19456;SDS011;9867;48.094;11.478;2022-07-01T05:24:08;1.80;;;1.70;;
19456;SDS011;9867;48.094;11.478;2022-07-01T05:26:36;1.47;;;1.27;;
19456;SDS011;9867;48.094;11.478;2022-07-01T05:29:04;1.30;;;1.20;;
19456;SDS011;9867;48.094;11.478;2022-07-01T05:31:32;1.30;;;1.20;;
19456;SDS011;9867;48.094;11.478;2022-07-01T05:34:02;2.00;;;1.10;;
19456;SDS011;9867;48.094;11.478;2022-07-01T05:36:30;2.20;;;1.50;;
19456;SDS011;9867;48.094;11.478;2022-07-01T05:38:58;1.30;;;1.20;;
19456;SDS011;9867;48.094;11.478;2022-07-01T05:41:27;2.07;;;1.30;;
19456;SDS011;9867;48.094;11.478;2022-07-01T05:43:55;2.23;;;1.37;;
19456;SDS011;9867;48.094;11.478;2022-07-01T05:46:23;0.93;;;0.93;;
19456;SDS011;9867;48.094;11.478;2022-07-01T05:48:51;2.07;;;1.27;;
19456;SDS011;9867;48.094;11.478;2022-07-01T05:51:20;1.10;;;1.00;;
19456;SDS011;9867;48.094;11.478;2022-07-01T05:53:48;1.63;;;1.20;;
19456;SDS011;9867;48.094;11.478;2022-07-01T05:56:16;1.00;;;1.00;;
19456;SDS011;9867;48.094;11.478;2022-07-01T05:58:44;1.00;;;1.00;;
19456;SDS011;9867;48.094;11.478;2022-07-01T06:01:11;0.97;;;0.93;;
19456;SDS011;9867;48.094;11.478;2022-07-01T06:03:39;1.13;;;1.10;;
19456;SDS011;9867;48.094;11.478;2022-07-01T06:06:08;3.90;;;2.00;;
19456;SDS011;9867;48.094;11.478;2022-07-01T06:08:37;1.33;;;1.23;;
19456;SDS011;9867;48.094;11.478;2022-07-01T06:11:05;1.73;;;1.47;;
19456;SDS011;9867;48.094;11.478;2022-07-01T06:13:32;1.10;;;1.00;;
19456;SDS011;9867;48.094;11.478;2022-07-01T06:16:00;0.97;;;0.97;;
19456;SDS011;9867;48.094;11.478;2022-07-01T06:18:28;1.40;;;1.30;;
19456;SDS011;9867;48.094;11.478;2022-07-01T06:20:56;1.63;;;1.30;;
19456;SDS011;9867;48.094;11.478;2022-07-01T06:23:24;1.43;;;1.33;;
19456;SDS011;9867;48.094;11.478;2022-07-01T06:25:54;2.00;;;1.90;;
19456;SDS011;9867;48.094;11.478;2022-07-01T06:28:21;1.23;;;1.13;;
19456;SDS011;9867;48.094;11.478;2022-07-01T06:30:52;1.50;;;1.40;;
19456;SDS011;9867;48.094;11.478;2022-07-01T06:33:21;2.03;;;1.47;;
19456;SDS011;9867;48.094;11.478;2022-07-01T06:35:49;0.93;;;0.93;;
19456;SDS011;9867;48.094;11.478;2022-07-01T06:38:17;1.57;;;1.20;;
19456;SDS011;9867;48.094;11.478;2022-07-01T06:40:46;1.20;;;1.10;;
19456;SDS011;9867;48.094;11.478;2022-07-01T06:43:36;2.00;;;1.80;;
19456;SDS011;9867;48.094;11.478;2022-07-01T06:46:04;1.60;;;1.50;;
19456;SDS011;9867;48.094;11.478;2022-07-01T06:48:32;1.37;;;1.30;;
19456;SDS011;9867;48.094;11.478;2022-07-01T06:51:00;1.57;;;1.47;;
19456;SDS011;9867;48.094;11.478;2022-07-01T06:53:28;1.60;;;1.37;;
19456;SDS011;9867;48.094;11.478;2022-07-01T06:55:56;1.30;;;1.20;;
19456;SDS011;9867;48.094;11.478;2022-07-01T06:58:24;1.40;;;1.30;;
19456;SDS011;9867;48.094;11.478;2022-07-01T07:00:53;2.80;;;1.33;;
19456;SDS011;9867;48.094;11.478;2022-07-01T07:03:21;1.23;;;1.23;;
19456;SDS011;9867;48.094;11.478;2022-07-01T07:05:49;1.50;;;1.40;;
19456;SDS011;9867;48.094;11.478;2022-07-01T07:08:18;1.40;;;1.30;;
19456;SDS011;9867;48.094;11.478;2022-07-01T07:10:46;1.03;;;1.00;;
19456;SDS011;9867;48.094;11.478;2022-07-01T07:13:14;1.10;;;1.10;;
19456;SDS011;9867;48.094;11.478;2022-07-01T07:15:42;1.40;;;1.30;;
19456;SDS011;9867;48.094;11.478;2022-07-01T07:18:11;3.30;;;1.20;;
19456;SDS011;9867;48.094;11.478;2022-07-01T07:20:39;2.10;;;1.40;;
19456;SDS011;9867;48.094;11.478;2022-07-01T07:23:07;1.23;;;1.10;;
19456;SDS011;9867;48.094;11.478;2022-07-01T07:25:35;3.77;;;1.40;;
19456;SDS011;9867;48.094;11.478;2022-07-01T07:28:03;1.70;;;1.40;;
19456;SDS011;9867;48.094;11.478;2022-07-01T07:30:31;1.57;;;1.43;;
19456;SDS011;9867;48.094;11.478;2022-07-01T07:32:59;1.83;;;1.57;;
19456;SDS011;9867;48.094;11.478;2022-07-01T07:35:29;2.00;;;1.80;;
19456;SDS011;9867;48.094;11.478;2022-07-01T07:37:56;3.80;;;1.63;;
19456;SDS011;9867;48.094;11.478;2022-07-01T07:40:24;1.67;;;1.57;;
19456;SDS011;9867;48.094;11.478;2022-07-01T07:42:53;1.90;;;1.80;;
19456;SDS011;9867;48.094;11.478;2022-07-01T07:45:21;2.20;;;2.10;;
19456;SDS011;9867;48.094;11.478;2022-07-01T07:47:48;2.67;;;1.50;;
19456;SDS011;9867;48.094;11.478;2022-07-01T07:50:17;1.80;;;1.70;;
19456;SDS011;9867;48.094;11.478;2022-07-01T07:52:46;2.87;;;2.67;;
19456;SDS011;9867;48.094;11.478;2022-07-01T07:55:14;3.47;;;3.17;;
19456;SDS011;9867;48.094;11.478;2022-07-01T07:57:42;3.47;;;3.17;;
19456;SDS011;9867;48.094;11.478;2022-07-01T08:00:11;3.33;;;3.03;;
19456;SDS011;9867;48.094;11.478;2022-07-01T08:02:40;3.20;;;2.90;;
19456;SDS011;9867;48.094;11.478;2022-07-01T08:05:09;2.60;;;2.40;;
19456;SDS011;9867;48.094;11.478;2022-07-01T08:07:39;3.03;;;2.73;;
19456;SDS011;9867;48.094;11.478;2022-07-01T08:10:10;4.70;;;2.90;;
19456;SDS011;9867;48.094;11.478;2022-07-01T08:12:39;2.47;;;1.13;;
19456;SDS011;9867;48.094;11.478;2022-07-01T08:15:07;1.50;;;1.00;;
19456;SDS011;9867;48.094;11.478;2022-07-01T08:17:37;2.07;;;1.17;;
19456;SDS011;9867;48.094;11.478;2022-07-01T08:20:05;1.00;;;1.00;;
19456;SDS011;9867;48.094;11.478;2022-07-01T08:22:34;1.43;;;1.33;;
19456;SDS011;9867;48.094;11.478;2022-07-01T08:25:02;1.30;;;1.30;;
19456;SDS011;9867;48.094;11.478;2022-07-01T08:27:32;2.50;;;1.40;;
19456;SDS011;9867;48.094;11.478;2022-07-01T08:29:59;1.87;;;1.70;;
19456;SDS011;9867;48.094;11.478;2022-07-01T08:32:27;3.10;;;1.67;;
19456;SDS011;9867;48.094;11.478;2022-07-01T08:34:56;1.93;;;1.83;;
19456;SDS011;9867;48.094;11.478;2022-07-01T08:37:24;4.03;;;1.90;;
19456;SDS011;9867;48.094;11.478;2022-07-01T08:39:52;1.90;;;1.80;;
19456;SDS011;9867;48.094;11.478;2022-07-01T08:42:20;2.43;;;2.00;;
19456;SDS011;9867;48.094;11.478;2022-07-01T08:44:49;2.83;;;2.20;;
19456;SDS011;9867;48.094;11.478;2022-07-01T08:47:17;1.80;;;1.70;;
19456;SDS011;9867;48.094;11.478;2022-07-01T08:49:45;2.00;;;1.90;;
19456;SDS011;9867;48.094;11.478;2022-07-01T08:52:13;1.90;;;1.67;;
19456;SDS011;9867;48.094;11.478;2022-07-01T08:54:41;1.87;;;1.77;;
19456;SDS011;9867;48.094;11.478;2022-07-01T08:57:08;2.53;;;1.87;;
19456;SDS011;9867;48.094;11.478;2022-07-01T08:59:36;1.63;;;1.53;;
19456;SDS011;9867;48.094;11.478;2022-07-01T09:02:05;1.90;;;1.80;;
19456;SDS011;9867;48.094;11.478;2022-07-01T09:04:33;1.47;;;1.37;;
19456;SDS011;9867;48.094;11.478;2022-07-01T09:07:03;1.60;;;1.60;;
19456;SDS011;9867;48.094;11.478;2022-07-01T09:09:33;1.50;;;1.40;;
19456;SDS011;9867;48.094;11.478;2022-07-01T09:12:04;1.80;;;1.70;;
19456;SDS011;9867;48.094;11.478;2022-07-01T09:14:33;1.80;;;1.70;;
19456;SDS011;9867;48.094;11.478;2022-07-01T09:17:03;1.67;;;1.33;;
19456;SDS011;9867;48.094;11.478;2022-07-01T09:19:35;1.23;;;1.23;;
19456;SDS011;9867;48.094;11.478;2022-07-01T09:22:12;1.60;;;1.50;;
19456;SDS011;9867;48.094;11.478;2022-07-01T09:24:40;1.50;;;1.40;;
19456;SDS011;9867;48.094;11.478;2022-07-01T09:27:34;2.33;;;1.47;;
19456;SDS011;9867;48.094;11.478;2022-07-01T09:30:03;1.70;;;1.60;;
19456;SDS011;9867;48.094;11.478;2022-07-01T09:32:36;1.20;;;1.20;;
19456;SDS011;9867;48.094;11.478;2022-07-01T09:35:06;1.90;;;1.43;;
19456;SDS011;9867;48.094;11.478;2022-07-01T09:37:34;1.50;;;1.50;;
19456;SDS011;9867;48.094;11.478;2022-07-01T09:40:03;1.53;;;1.43;;
19456;SDS011;9867;48.094;11.478;2022-07-01T09:42:37;1.30;;;1.30;;
19456;SDS011;9867;48.094;11.478;2022-07-01T09:45:12;1.30;;;1.27;;
19456;SDS011;9867;48.094;11.478;2022-07-01T09:47:40;1.47;;;1.30;;
19456;SDS011;9867;48.094;11.478;2022-07-01T09:50:10;1.40;;;1.33;;
19456;SDS011;9867;48.094;11.478;2022-07-01T09:52:38;1.20;;;1.20;;
19456;SDS011;9867;48.094;11.478;2022-07-01T09:55:08;1.50;;;1.40;;
19456;SDS011;9867;48.094;11.478;2022-07-01T09:57:37;1.40;;;1.30;;
19456;SDS011;9867;48.094;11.478;2022-07-01T10:00:07;1.10;;;1.10;;
19456;SDS011;9867;48.094;11.478;2022-07-01T10:02:35;1.47;;;1.20;;
19456;SDS011;9867;48.094;11.478;2022-07-01T10:05:06;1.13;;;1.13;;
19456;SDS011;9867;48.094;11.478;2022-07-01T10:07:39;1.10;;;1.10;;
19456;SDS011;9867;48.094;11.478;2022-07-01T10:10:21;1.17;;;1.17;;
19456;SDS011;9867;48.094;11.478;2022-07-01T10:13:01;1.43;;;1.33;;
19456;SDS011;9867;48.094;11.478;2022-07-01T10:15:33;2.70;;;2.10;;
19456;SDS011;9867;48.094;11.478;2022-07-01T10:18:02;1.37;;;1.37;;
19456;SDS011;9867;48.094;11.478;2022-07-01T10:20:30;2.40;;;1.30;;
19456;SDS011;9867;48.094;11.478;2022-07-01T10:23:03;1.20;;;1.20;;
19456;SDS011;9867;48.094;11.478;2022-07-01T10:25:42;1.23;;;1.23;;
19456;SDS011;9867;48.094;11.478;2022-07-01T10:28:12;1.60;;;1.50;;
19456;SDS011;9867;48.094;11.478;2022-07-01T10:30:50;1.77;;;1.67;;
19456;SDS011;9867;48.094;11.478;2022-07-01T10:33:26;1.83;;;1.73;;
19456;SDS011;9867;48.094;11.478;2022-07-01T10:36:03;1.70;;;1.60;;
19456;SDS011;9867;48.094;11.478;2022-07-01T10:38:33;1.50;;;1.50;;
19456;SDS011;9867;48.094;11.478;2022-07-01T10:41:02;1.40;;;1.40;;
19456;SDS011;9867;48.094;11.478;2022-07-01T10:43:36;1.67;;;1.60;;
19456;SDS011;9867;48.094;11.478;2022-07-01T10:46:08;1.67;;;1.57;;
19456;SDS011;9867;48.094;11.478;2022-07-01T10:48:36;1.63;;;1.63;;
19456;SDS011;9867;48.094;11.478;2022-07-01T10:51:04;2.83;;;2.00;;
19456;SDS011;9867;48.094;11.478;2022-07-01T10:53:45;2.00;;;1.90;;
19456;SDS011;9867;48.094;11.478;2022-07-01T10:56:23;1.50;;;1.40;;
19456;SDS011;9867;48.094;11.478;2022-07-01T10:59:05;2.10;;;2.00;;
19456;SDS011;9867;48.094;11.478;2022-07-01T11:01:34;1.57;;;1.47;;
19456;SDS011;9867;48.094;11.478;2022-07-01T11:04:03;1.70;;;1.60;;
19456;SDS011;9867;48.094;11.478;2022-07-01T11:06:32;1.40;;;1.40;;
19456;SDS011;9867;48.094;11.478;2022-07-01T11:09:06;1.80;;;1.70;;
19456;SDS011;9867;48.094;11.478;2022-07-01T11:11:34;1.80;;;1.70;;
19456;SDS011;9867;48.094;11.478;2022-07-01T11:14:02;2.73;;;2.50;;
19456;SDS011;9867;48.094;11.478;2022-07-01T11:16:30;1.60;;;1.17;;
19456;SDS011;9867;48.094;11.478;2022-07-01T11:18:58;1.00;;;1.00;;
19456;SDS011;9867;48.094;11.478;2022-07-01T11:21:26;2.00;;;1.23;;
19456;SDS011;9867;48.094;11.478;2022-07-01T11:23:54;1.10;;;1.10;;
19456;SDS011;9867;48.094;11.478;2022-07-01T11:26:24;1.83;;;1.73;;
19456;SDS011;9867;48.094;11.478;2022-07-01T11:28:52;1.57;;;1.50;;
19456;SDS011;9867;48.094;11.478;2022-07-01T11:31:27;1.77;;;1.40;;
19456;SDS011;9867;48.094;11.478;2022-07-01T11:33:56;1.17;;;1.17;;
19456;SDS011;9867;48.094;11.478;2022-07-01T11:36:24;1.67;;;1.57;;
19456;SDS011;9867;48.094;11.478;2022-07-01T11:39:10;2.83;;;1.37;;
19456;SDS011;9867;48.094;11.478;2022-07-01T11:41:58;1.20;;;1.20;;
19456;SDS011;9867;48.094;11.478;2022-07-01T11:44:30;1.20;;;1.20;;
19456;SDS011;9867;48.094;11.478;2022-07-01T11:46:59;2.53;;;1.40;;
19456;SDS011;9867;48.094;11.478;2022-07-01T11:49:27;1.33;;;1.33;;
19456;SDS011;9867;48.094;11.478;2022-07-01T11:51:55;1.30;;;1.30;;
19456;SDS011;9867;48.094;11.478;2022-07-01T11:54:24;1.43;;;1.37;;
19456;SDS011;9867;48.094;11.478;2022-07-01T11:56:52;1.40;;;1.30;;
19456;SDS011;9867;48.094;11.478;2022-07-01T11:59:22;1.70;;;1.70;;
19456;SDS011;9867;48.094;11.478;2022-07-01T12:01:50;2.00;;;1.63;;
19456;SDS011;9867;48.094;11.478;2022-07-01T12:04:19;1.40;;;1.40;;
19456;SDS011;9867;48.094;11.478;2022-07-01T12:06:47;1.67;;;1.67;;
19456;SDS011;9867;48.094;11.478;2022-07-01T12:09:17;2.07;;;1.97;;
19456;SDS011;9867;48.094;11.478;2022-07-01T12:11:46;1.80;;;1.70;;
19456;SDS011;9867;48.094;11.478;2022-07-01T12:14:19;2.20;;;1.87;;
19456;SDS011;9867;48.094;11.478;2022-07-01T12:16:50;2.43;;;2.33;;
19456;SDS011;9867;48.094;11.478;2022-07-01T12:19:19;2.40;;;2.30;;
19456;SDS011;9867;48.094;11.478;2022-07-01T12:21:48;2.40;;;2.20;;
19456;SDS011;9867;48.094;11.478;2022-07-01T12:24:17;2.50;;;2.40;;
19456;SDS011;9867;48.094;11.478;2022-07-01T12:26:49;2.33;;;2.20;;
19456;SDS011;9867;48.094;11.478;2022-07-01T12:29:21;2.67;;;2.17;;
19456;SDS011;9867;48.094;11.478;2022-07-01T12:31:55;2.87;;;2.13;;
19456;SDS011;9867;48.094;11.478;2022-07-01T12:34:35;2.67;;;2.50;;
19456;SDS011;9867;48.094;11.478;2022-07-01T12:37:07;2.33;;;2.23;;
19456;SDS011;9867;48.094;11.478;2022-07-01T12:39:47;2.47;;;2.37;;
19456;SDS011;9867;48.094;11.478;2022-07-01T12:42:23;2.03;;;1.93;;
19456;SDS011;9867;48.094;11.478;2022-07-01T12:44:53;2.70;;;2.40;;
19456;SDS011;9867;48.094;11.478;2022-07-01T12:47:25;2.90;;;2.10;;
19456;SDS011;9867;48.094;11.478;2022-07-01T12:50:10;2.23;;;2.13;;
19456;SDS011;9867;48.094;11.478;2022-07-01T12:52:40;2.33;;;2.23;;
19456;SDS011;9867;48.094;11.478;2022-07-01T12:55:14;2.50;;;2.40;;
19456;SDS011;9867;48.094;11.478;2022-07-01T12:57:42;2.80;;;2.60;;
19456;SDS011;9867;48.094;11.478;2022-07-01T13:00:10;2.60;;;2.43;;
19456;SDS011;9867;48.094;11.478;2022-07-01T13:02:40;2.77;;;2.60;;
19456;SDS011;9867;48.094;11.478;2022-07-01T13:05:08;2.60;;;2.40;;
19456;SDS011;9867;48.094;11.478;2022-07-01T13:07:37;2.60;;;2.40;;
19456;SDS011;9867;48.094;11.478;2022-07-01T13:10:11;2.60;;;2.50;;
19456;SDS011;9867;48.094;11.478;2022-07-01T13:12:39;2.80;;;2.40;;
19456;SDS011;9867;48.094;11.478;2022-07-01T13:15:08;2.30;;;2.20;;
19456;SDS011;9867;48.094;11.478;2022-07-01T13:17:36;2.30;;;2.20;;
19456;SDS011;9867;48.094;11.478;2022-07-01T13:20:06;2.57;;;2.47;;
19456;SDS011;9867;48.094;11.478;2022-07-01T13:22:35;2.70;;;2.50;;
19456;SDS011;9867;48.094;11.478;2022-07-01T13:25:04;2.43;;;2.27;;
19456;SDS011;9867;48.094;11.478;2022-07-01T13:27:33;2.87;;;2.67;;
19456;SDS011;9867;48.094;11.478;2022-07-01T13:30:01;3.07;;;2.87;;
19456;SDS011;9867;48.094;11.478;2022-07-01T13:32:29;4.03;;;2.47;;
19456;SDS011;9867;48.094;11.478;2022-07-01T13:34:57;2.80;;;2.40;;
19456;SDS011;9867;48.094;11.478;2022-07-01T13:37:27;4.30;;;3.90;;
19456;SDS011;9867;48.094;11.478;2022-07-01T13:39:55;3.30;;;3.00;;
19456;SDS011;9867;48.094;11.478;2022-07-01T13:42:23;2.80;;;2.60;;
19456;SDS011;9867;48.094;11.478;2022-07-01T13:44:51;2.93;;;2.73;;
19456;SDS011;9867;48.094;11.478;2022-07-01T13:47:19;2.73;;;2.53;;
19456;SDS011;9867;48.094;11.478;2022-07-01T13:49:48;2.57;;;2.37;;
19456;SDS011;9867;48.094;11.478;2022-07-01T13:52:16;2.70;;;2.60;;
19456;SDS011;9867;48.094;11.478;2022-07-01T13:54:45;3.00;;;2.80;;
19456;SDS011;9867;48.094;11.478;2022-07-01T13:57:13;2.60;;;2.50;;
19456;SDS011;9867;48.094;11.478;2022-07-01T13:59:41;3.00;;;2.70;;
19456;SDS011;9867;48.094;11.478;2022-07-01T14:02:10;3.10;;;2.50;;
19456;SDS011;9867;48.094;11.478;2022-07-01T14:04:38;3.00;;;2.60;;
19456;SDS011;9867;48.094;11.478;2022-07-01T14:07:06;2.67;;;2.57;;
19456;SDS011;9867;48.094;11.478;2022-07-01T14:09:34;3.23;;;3.03;;
19456;SDS011;9867;48.094;11.478;2022-07-01T14:12:05;2.93;;;2.63;;
19456;SDS011;9867;48.094;11.478;2022-07-01T14:14:39;2.70;;;2.30;;
19456;SDS011;9867;48.094;11.478;2022-07-01T14:17:07;2.43;;;2.23;;
19456;SDS011;9867;48.094;11.478;2022-07-01T14:19:35;2.70;;;2.50;;
19456;SDS011;9867;48.094;11.478;2022-07-01T14:22:03;2.30;;;2.20;;
19456;SDS011;9867;48.094;11.478;2022-07-01T14:24:31;2.67;;;2.47;;
19456;SDS011;9867;48.094;11.478;2022-07-01T14:26:59;2.50;;;2.30;;
19456;SDS011;9867;48.094;11.478;2022-07-01T14:29:28;2.90;;;2.70;;
19456;SDS011;9867;48.094;11.478;2022-07-01T14:31:56;2.57;;;2.47;;
19456;SDS011;9867;48.094;11.478;2022-07-01T14:34:26;2.60;;;2.40;;
19456;SDS011;9867;48.094;11.478;2022-07-01T14:36:54;3.80;;;3.30;;
19456;SDS011;9867;48.094;11.478;2022-07-01T14:39:21;3.50;;;3.20;;
19456;SDS011;9867;48.094;11.478;2022-07-01T14:41:49;3.40;;;3.17;;
19456;SDS011;9867;48.094;11.478;2022-07-01T14:44:22;3.20;;;2.90;;
19456;SDS011;9867;48.094;11.478;2022-07-01T14:46:54;3.90;;;3.60;;
19456;SDS011;9867;48.094;11.478;2022-07-01T14:49:22;2.90;;;2.70;;
19456;SDS011;9867;48.094;11.478;2022-07-01T14:51:50;2.93;;;2.73;;
19456;SDS011;9867;48.094;11.478;2022-07-01T14:54:19;3.07;;;2.87;;
19456;SDS011;9867;48.094;11.478;2022-07-01T14:56:46;3.37;;;3.07;;
19456;SDS011;9867;48.094;11.478;2022-07-01T14:59:14;3.10;;;2.90;;
19456;SDS011;9867;48.094;11.478;2022-07-01T15:01:42;3.60;;;3.40;;
19456;SDS011;9867;48.094;11.478;2022-07-01T15:04:11;3.80;;;3.50;;